sensor_id;sensor_type;location;lat;lon;timestamp;temperature;humidity
68350;DHT22;55268;-34.538;-58.598;2022-08-19T00:00:39;9.20;47.40
68350;DHT22;55268;-34.538;-58.598;2022-08-19T00:03:09;9.10;47.80
68350;DHT22;55268;-34.538;-58.598;2022-08-19T00:05:39;9.10;47.80
68350;DHT22;55268;-34.538;-58.598;2022-08-19T00:08:07;9.00;47.80
68350;DHT22;55268;-34.538;-58.598;2022-08-19T00:10:34;9.00;48.00
68350;DHT22;55268;-34.538;-58.598;2022-08-19T00:13:04;9.00;48.00
68350;DHT22;55268;-34.538;-58.598;2022-08-19T00:15:34;9.00;48.10
68350;DHT22;55268;-34.538;-58.598;2022-08-19T00:18:01;8.90;48.00
68350;DHT22;55268;-34.538;-58.598;2022-08-19T00:20:27;8.90;48.10
68350;DHT22;55268;-34.538;-58.598;2022-08-19T00:22:57;8.90;48.00
68350;DHT22;55268;-34.538;-58.598;2022-08-19T00:25:26;9.00;47.80
68350;DHT22;55268;-34.538;-58.598;2022-08-19T00:27:53;9.00;47.60
68350;DHT22;55268;-34.538;-58.598;2022-08-19T00:30:20;8.90;47.20
68350;DHT22;55268;-34.538;-58.598;2022-08-19T00:32:50;8.80;47.50
68350;DHT22;55268;-34.538;-58.598;2022-08-19T00:35:19;8.80;47.50
68350;DHT22;55268;-34.538;-58.598;2022-08-19T00:37:48;8.70;47.30
68350;DHT22;55268;-34.538;-58.598;2022-08-19T00:40:16;8.60;47.50
68350;DHT22;55268;-34.538;-58.598;2022-08-19T00:42:47;8.50;47.70
68350;DHT22;55268;-34.538;-58.598;2022-08-19T00:45:18;8.50;48.00
68350;DHT22;55268;-34.538;-58.598;2022-08-19T00:47:46;8.40;48.20
68350;DHT22;55268;-34.538;-58.598;2022-08-19T00:50:16;8.30;48.50
68350;DHT22;55268;-34.538;-58.598;2022-08-19T00:52:47;8.30;48.60
68350;DHT22;55268;-34.538;-58.598;2022-08-19T00:55:21;8.20;48.80
68350;DHT22;55268;-34.538;-58.598;2022-08-19T00:57:53;8.20;48.80
68350;DHT22;55268;-34.538;-58.598;2022-08-19T01:00:23;8.30;48.30
68350;DHT22;55268;-34.538;-58.598;2022-08-19T01:02:54;8.20;48.00
68350;DHT22;55268;-34.538;-58.598;2022-08-19T01:05:26;8.10;48.00
68350;DHT22;55268;-34.538;-58.598;2022-08-19T01:07:56;8.10;48.40
68350;DHT22;55268;-34.538;-58.598;2022-08-19T01:10:27;8.00;48.50
68350;DHT22;55268;-34.538;-58.598;2022-08-19T01:12:59;8.00;48.70
68350;DHT22;55268;-34.538;-58.598;2022-08-19T01:15:34;7.90;48.90
68350;DHT22;55268;-34.538;-58.598;2022-08-19T01:18:07;7.90;49.00
68350;DHT22;55268;-34.538;-58.598;2022-08-19T01:20:35;7.80;49.10
68350;DHT22;55268;-34.538;-58.598;2022-08-19T01:23:06;7.80;49.00
68350;DHT22;55268;-34.538;-58.598;2022-08-19T01:25:42;7.80;49.10
68350;DHT22;55268;-34.538;-58.598;2022-08-19T01:28:18;7.80;49.20
68350;DHT22;55268;-34.538;-58.598;2022-08-19T01:30:47;7.80;49.20
68350;DHT22;55268;-34.538;-58.598;2022-08-19T01:33:16;7.80;49.10
68350;DHT22;55268;-34.538;-58.598;2022-08-19T01:35:46;7.80;49.20
68350;DHT22;55268;-34.538;-58.598;2022-08-19T01:38:23;7.80;49.40
68350;DHT22;55268;-34.538;-58.598;2022-08-19T01:40:55;7.70;49.30
68350;DHT22;55268;-34.538;-58.598;2022-08-19T01:43:25;7.60;49.50
68350;DHT22;55268;-34.538;-58.598;2022-08-19T01:45:54;7.60;49.50
68350;DHT22;55268;-34.538;-58.598;2022-08-19T01:48:24;7.60;49.60
68350;DHT22;55268;-34.538;-58.598;2022-08-19T01:50:57;7.50;49.70
68350;DHT22;55268;-34.538;-58.598;2022-08-19T01:53:27;7.40;49.70
68350;DHT22;55268;-34.538;-58.598;2022-08-19T01:55:58;7.30;50.10
68350;DHT22;55268;-34.538;-58.598;2022-08-19T01:58:32;7.30;50.00
68350;DHT22;55268;-34.538;-58.598;2022-08-19T02:01:03;7.20;49.90
68350;DHT22;55268;-34.538;-58.598;2022-08-19T02:03:33;7.20;50.10
68350;DHT22;55268;-34.538;-58.598;2022-08-19T02:06:05;7.10;50.00
68350;DHT22;55268;-34.538;-58.598;2022-08-19T02:08:35;7.10;50.20
68350;DHT22;55268;-34.538;-58.598;2022-08-19T02:11:03;7.10;50.20
68350;DHT22;55268;-34.538;-58.598;2022-08-19T02:13:33;7.10;50.10
68350;DHT22;55268;-34.538;-58.598;2022-08-19T02:16:03;7.20;50.10
68350;DHT22;55268;-34.538;-58.598;2022-08-19T02:18:30;7.20;50.20
68350;DHT22;55268;-34.538;-58.598;2022-08-19T02:20:58;7.20;49.90
68350;DHT22;55268;-34.538;-58.598;2022-08-19T02:23:28;7.20;50.20
68350;DHT22;55268;-34.538;-58.598;2022-08-19T02:25:59;7.10;50.60
68350;DHT22;55268;-34.538;-58.598;2022-08-19T02:28:27;7.10;50.10
68350;DHT22;55268;-34.538;-58.598;2022-08-19T02:30:54;7.00;50.00
68350;DHT22;55268;-34.538;-58.598;2022-08-19T02:33:24;7.00;49.90
68350;DHT22;55268;-34.538;-58.598;2022-08-19T02:35:53;7.00;49.70
68350;DHT22;55268;-34.538;-58.598;2022-08-19T02:38:21;7.00;49.50
68350;DHT22;55268;-34.538;-58.598;2022-08-19T02:40:55;7.00;49.30
68350;DHT22;55268;-34.538;-58.598;2022-08-19T02:43:25;7.00;49.20
68350;DHT22;55268;-34.538;-58.598;2022-08-19T02:45:55;7.00;49.20
68350;DHT22;55268;-34.538;-58.598;2022-08-19T02:48:23;7.10;49.10
68350;DHT22;55268;-34.538;-58.598;2022-08-19T02:50:52;7.00;49.30
68350;DHT22;55268;-34.538;-58.598;2022-08-19T02:53:26;7.00;49.20
68350;DHT22;55268;-34.538;-58.598;2022-08-19T02:55:56;7.00;49.50
68350;DHT22;55268;-34.538;-58.598;2022-08-19T02:58:24;7.00;49.70
68350;DHT22;55268;-34.538;-58.598;2022-08-19T03:00:55;7.00;49.50
68350;DHT22;55268;-34.538;-58.598;2022-08-19T03:03:26;6.90;49.50
68350;DHT22;55268;-34.538;-58.598;2022-08-19T03:06:14;6.90;49.70
68350;DHT22;55268;-34.538;-58.598;2022-08-19T03:08:44;6.90;49.70
68350;DHT22;55268;-34.538;-58.598;2022-08-19T03:11:16;6.80;49.80
68350;DHT22;55268;-34.538;-58.598;2022-08-19T03:13:47;6.80;49.90
68350;DHT22;55268;-34.538;-58.598;2022-08-19T03:16:18;6.80;49.70
68350;DHT22;55268;-34.538;-58.598;2022-08-19T03:18:45;6.80;49.90
68350;DHT22;55268;-34.538;-58.598;2022-08-19T03:21:19;6.70;50.50
68350;DHT22;55268;-34.538;-58.598;2022-08-19T03:23:55;6.70;50.80
68350;DHT22;55268;-34.538;-58.598;2022-08-19T03:26:23;6.60;51.20
68350;DHT22;55268;-34.538;-58.598;2022-08-19T03:28:50;6.60;51.40
68350;DHT22;55268;-34.538;-58.598;2022-08-19T03:31:21;6.50;51.40
68350;DHT22;55268;-34.538;-58.598;2022-08-19T03:33:52;6.50;51.20
68350;DHT22;55268;-34.538;-58.598;2022-08-19T03:36:23;6.60;51.10
68350;DHT22;55268;-34.538;-58.598;2022-08-19T03:38:54;6.60;51.10
68350;DHT22;55268;-34.538;-58.598;2022-08-19T03:41:28;6.60;51.10
68350;DHT22;55268;-34.538;-58.598;2022-08-19T03:43:58;6.60;50.70
68350;DHT22;55268;-34.538;-58.598;2022-08-19T03:46:29;6.60;50.70
68350;DHT22;55268;-34.538;-58.598;2022-08-19T03:48:59;6.60;51.20
68350;DHT22;55268;-34.538;-58.598;2022-08-19T03:51:37;6.50;51.30
68350;DHT22;55268;-34.538;-58.598;2022-08-19T03:54:15;6.50;51.40
68350;DHT22;55268;-34.538;-58.598;2022-08-19T03:56:44;6.50;51.30
68350;DHT22;55268;-34.538;-58.598;2022-08-19T03:59:17;6.50;51.40
68350;DHT22;55268;-34.538;-58.598;2022-08-19T04:01:46;6.50;51.40
68350;DHT22;55268;-34.538;-58.598;2022-08-19T04:04:16;6.40;51.40
68350;DHT22;55268;-34.538;-58.598;2022-08-19T04:06:46;6.40;51.30
68350;DHT22;55268;-34.538;-58.598;2022-08-19T04:09:13;6.50;51.50
68350;DHT22;55268;-34.538;-58.598;2022-08-19T04:11:45;6.50;51.70
68350;DHT22;55268;-34.538;-58.598;2022-08-19T04:14:18;6.40;51.70
68350;DHT22;55268;-34.538;-58.598;2022-08-19T04:16:47;6.40;52.10
68350;DHT22;55268;-34.538;-58.598;2022-08-19T04:19:15;6.40;52.10
68350;DHT22;55268;-34.538;-58.598;2022-08-19T04:21:47;6.40;52.00
68350;DHT22;55268;-34.538;-58.598;2022-08-19T04:24:17;6.40;52.00
68350;DHT22;55268;-34.538;-58.598;2022-08-19T04:26:45;6.40;52.00
68350;DHT22;55268;-34.538;-58.598;2022-08-19T04:29:22;6.50;51.30
68350;DHT22;55268;-34.538;-58.598;2022-08-19T04:31:55;6.50;51.20
68350;DHT22;55268;-34.538;-58.598;2022-08-19T04:34:26;6.40;51.80
68350;DHT22;55268;-34.538;-58.598;2022-08-19T04:36:56;6.40;51.70
68350;DHT22;55268;-34.538;-58.598;2022-08-19T04:39:28;6.30;52.10
68350;DHT22;55268;-34.538;-58.598;2022-08-19T04:42:18;6.20;52.40
68350;DHT22;55268;-34.538;-58.598;2022-08-19T04:45:07;6.20;52.50
68350;DHT22;55268;-34.538;-58.598;2022-08-19T04:47:37;6.10;52.20
68350;DHT22;55268;-34.538;-58.598;2022-08-19T04:50:06;6.10;52.30
68350;DHT22;55268;-34.538;-58.598;2022-08-19T04:52:37;6.10;52.20
68350;DHT22;55268;-34.538;-58.598;2022-08-19T04:55:09;6.10;52.00
68350;DHT22;55268;-34.538;-58.598;2022-08-19T04:57:37;6.00;51.70
68350;DHT22;55268;-34.538;-58.598;2022-08-19T05:00:08;6.00;52.00
68350;DHT22;55268;-34.538;-58.598;2022-08-19T05:02:37;6.10;51.90
68350;DHT22;55268;-34.538;-58.598;2022-08-19T05:05:08;6.10;51.80
68350;DHT22;55268;-34.538;-58.598;2022-08-19T05:07:35;6.20;51.80
68350;DHT22;55268;-34.538;-58.598;2022-08-19T05:10:05;6.20;51.80
68350;DHT22;55268;-34.538;-58.598;2022-08-19T05:12:34;6.30;51.60
68350;DHT22;55268;-34.538;-58.598;2022-08-19T05:15:05;6.20;51.70
68350;DHT22;55268;-34.538;-58.598;2022-08-19T05:17:34;6.10;51.80
68350;DHT22;55268;-34.538;-58.598;2022-08-19T05:20:03;6.10;52.30
68350;DHT22;55268;-34.538;-58.598;2022-08-19T05:22:52;5.90;52.60
68350;DHT22;55268;-34.538;-58.598;2022-08-19T05:25:22;5.80;52.60
68350;DHT22;55268;-34.538;-58.598;2022-08-19T05:27:51;5.80;52.70
68350;DHT22;55268;-34.538;-58.598;2022-08-19T05:30:18;5.90;52.60
68350;DHT22;55268;-34.538;-58.598;2022-08-19T05:32:47;5.90;52.70
68350;DHT22;55268;-34.538;-58.598;2022-08-19T05:35:17;5.80;53.00
68350;DHT22;55268;-34.538;-58.598;2022-08-19T05:37:45;5.80;53.00
68350;DHT22;55268;-34.538;-58.598;2022-08-19T05:40:12;5.70;53.50
68350;DHT22;55268;-34.538;-58.598;2022-08-19T05:42:41;5.60;53.70
68350;DHT22;55268;-34.538;-58.598;2022-08-19T05:45:10;5.50;53.60
68350;DHT22;55268;-34.538;-58.598;2022-08-19T05:47:37;5.50;53.20
68350;DHT22;55268;-34.538;-58.598;2022-08-19T05:50:05;5.50;53.30
68350;DHT22;55268;-34.538;-58.598;2022-08-19T05:52:34;5.50;53.50
68350;DHT22;55268;-34.538;-58.598;2022-08-19T05:55:06;5.50;53.20
68350;DHT22;55268;-34.538;-58.598;2022-08-19T05:57:33;5.40;53.30
68350;DHT22;55268;-34.538;-58.598;2022-08-19T06:00:00;5.40;53.30
68350;DHT22;55268;-34.538;-58.598;2022-08-19T06:02:30;5.30;53.40
68350;DHT22;55268;-34.538;-58.598;2022-08-19T06:04:59;5.30;53.20
68350;DHT22;55268;-34.538;-58.598;2022-08-19T06:07:28;5.40;53.10
68350;DHT22;55268;-34.538;-58.598;2022-08-19T06:09:55;5.40;53.10
68350;DHT22;55268;-34.538;-58.598;2022-08-19T06:12:25;5.30;53.20
68350;DHT22;55268;-34.538;-58.598;2022-08-19T06:14:58;5.30;53.20
68350;DHT22;55268;-34.538;-58.598;2022-08-19T06:17:25;5.30;53.00
68350;DHT22;55268;-34.538;-58.598;2022-08-19T06:19:52;5.30;52.60
68350;DHT22;55268;-34.538;-58.598;2022-08-19T06:22:22;5.30;52.60
68350;DHT22;55268;-34.538;-58.598;2022-08-19T06:24:51;5.30;52.40
68350;DHT22;55268;-34.538;-58.598;2022-08-19T06:27:20;5.30;52.30
68350;DHT22;55268;-34.538;-58.598;2022-08-19T06:29:47;5.30;52.30
68350;DHT22;55268;-34.538;-58.598;2022-08-19T06:32:18;5.20;52.40
68350;DHT22;55268;-34.538;-58.598;2022-08-19T06:34:47;5.30;52.60
68350;DHT22;55268;-34.538;-58.598;2022-08-19T06:37:14;5.30;52.30
68350;DHT22;55268;-34.538;-58.598;2022-08-19T06:39:43;5.30;52.30
68350;DHT22;55268;-34.538;-58.598;2022-08-19T06:42:14;5.30;52.50
68350;DHT22;55268;-34.538;-58.598;2022-08-19T06:44:45;5.30;52.50
68350;DHT22;55268;-34.538;-58.598;2022-08-19T06:47:17;5.30;52.40
68350;DHT22;55268;-34.538;-58.598;2022-08-19T06:49:44;5.40;52.30
68350;DHT22;55268;-34.538;-58.598;2022-08-19T06:52:13;5.40;52.00
68350;DHT22;55268;-34.538;-58.598;2022-08-19T06:54:42;5.40;52.00
68350;DHT22;55268;-34.538;-58.598;2022-08-19T06:57:09;5.40;51.90
68350;DHT22;55268;-34.538;-58.598;2022-08-19T06:59:41;5.30;51.90
68350;DHT22;55268;-34.538;-58.598;2022-08-19T07:02:10;5.30;52.20
68350;DHT22;55268;-34.538;-58.598;2022-08-19T07:04:40;5.30;52.20
68350;DHT22;55268;-34.538;-58.598;2022-08-19T07:07:11;5.30;52.40
68350;DHT22;55268;-34.538;-58.598;2022-08-19T07:09:41;5.30;52.20
68350;DHT22;55268;-34.538;-58.598;2022-08-19T07:12:13;5.30;52.10
68350;DHT22;55268;-34.538;-58.598;2022-08-19T07:14:43;5.30;52.10
68350;DHT22;55268;-34.538;-58.598;2022-08-19T07:17:12;5.40;51.80
68350;DHT22;55268;-34.538;-58.598;2022-08-19T07:19:40;5.40;51.50
68350;DHT22;55268;-34.538;-58.598;2022-08-19T07:22:10;5.40;51.70
68350;DHT22;55268;-34.538;-58.598;2022-08-19T07:24:40;5.40;51.70
68350;DHT22;55268;-34.538;-58.598;2022-08-19T07:27:07;5.40;51.60
68350;DHT22;55268;-34.538;-58.598;2022-08-19T07:29:36;5.40;51.50
68350;DHT22;55268;-34.538;-58.598;2022-08-19T07:32:06;5.40;51.40
68350;DHT22;55268;-34.538;-58.598;2022-08-19T07:34:35;5.40;51.40
68350;DHT22;55268;-34.538;-58.598;2022-08-19T07:37:06;5.40;51.40
68350;DHT22;55268;-34.538;-58.598;2022-08-19T07:39:35;5.40;51.40
68350;DHT22;55268;-34.538;-58.598;2022-08-19T07:42:07;5.40;51.40
68350;DHT22;55268;-34.538;-58.598;2022-08-19T07:44:38;5.40;51.50
68350;DHT22;55268;-34.538;-58.598;2022-08-19T07:47:05;5.40;51.70
68350;DHT22;55268;-34.538;-58.598;2022-08-19T07:49:33;5.40;51.90
68350;DHT22;55268;-34.538;-58.598;2022-08-19T07:52:05;5.30;51.80
68350;DHT22;55268;-34.538;-58.598;2022-08-19T07:54:36;5.20;52.00
68350;DHT22;55268;-34.538;-58.598;2022-08-19T07:57:05;5.20;51.90
68350;DHT22;55268;-34.538;-58.598;2022-08-19T07:59:32;5.20;51.90
68350;DHT22;55268;-34.538;-58.598;2022-08-19T08:02:02;5.20;52.00
68350;DHT22;55268;-34.538;-58.598;2022-08-19T08:04:31;5.10;52.00
68350;DHT22;55268;-34.538;-58.598;2022-08-19T08:07:18;5.10;52.10
68350;DHT22;55268;-34.538;-58.598;2022-08-19T08:10:06;5.00;51.80
68350;DHT22;55268;-34.538;-58.598;2022-08-19T08:12:38;4.90;52.10
68350;DHT22;55268;-34.538;-58.598;2022-08-19T08:15:11;4.80;52.40
68350;DHT22;55268;-34.538;-58.598;2022-08-19T08:17:38;4.70;52.60
68350;DHT22;55268;-34.538;-58.598;2022-08-19T08:20:06;4.70;52.90
68350;DHT22;55268;-34.538;-58.598;2022-08-19T08:22:36;4.70;53.10
68350;DHT22;55268;-34.538;-58.598;2022-08-19T08:25:23;4.70;52.90
68350;DHT22;55268;-34.538;-58.598;2022-08-19T08:27:51;4.70;52.40
68350;DHT22;55268;-34.538;-58.598;2022-08-19T08:30:22;4.60;52.80
68350;DHT22;55268;-34.538;-58.598;2022-08-19T08:32:52;4.60;53.00
68350;DHT22;55268;-34.538;-58.598;2022-08-19T08:35:23;4.50;53.10
68350;DHT22;55268;-34.538;-58.598;2022-08-19T08:37:52;4.50;53.20
68350;DHT22;55268;-34.538;-58.598;2022-08-19T08:40:23;4.50;52.90
68350;DHT22;55268;-34.538;-58.598;2022-08-19T08:43:29;4.60;52.80
68350;DHT22;55268;-34.538;-58.598;2022-08-19T08:46:09;4.50;53.00
68350;DHT22;55268;-34.538;-58.598;2022-08-19T08:48:58;4.50;53.10
68350;DHT22;55268;-34.538;-58.598;2022-08-19T08:51:32;4.50;53.40
68350;DHT22;55268;-34.538;-58.598;2022-08-19T08:54:06;4.50;53.40
68350;DHT22;55268;-34.538;-58.598;2022-08-19T08:56:33;4.50;53.30
68350;DHT22;55268;-34.538;-58.598;2022-08-19T09:01:36;4.50;53.00
68350;DHT22;55268;-34.538;-58.598;2022-08-19T09:04:06;4.60;52.70
68350;DHT22;55268;-34.538;-58.598;2022-08-19T09:06:37;4.60;52.70
68350;DHT22;55268;-34.538;-58.598;2022-08-19T09:09:18;4.60;52.90
68350;DHT22;55268;-34.538;-58.598;2022-08-19T09:15:07;4.40;53.20
68350;DHT22;55268;-34.538;-58.598;2022-08-19T09:17:36;4.30;53.30
68350;DHT22;55268;-34.538;-58.598;2022-08-19T09:20:18;4.40;53.10
68350;DHT22;55268;-34.538;-58.598;2022-08-19T09:22:49;4.30;52.80
68350;DHT22;55268;-34.538;-58.598;2022-08-19T09:25:20;4.30;53.30
68350;DHT22;55268;-34.538;-58.598;2022-08-19T09:27:50;4.30;53.40
68350;DHT22;55268;-34.538;-58.598;2022-08-19T09:30:21;4.30;53.30
68350;DHT22;55268;-34.538;-58.598;2022-08-19T09:32:51;4.20;53.30
68350;DHT22;55268;-34.538;-58.598;2022-08-19T09:35:23;4.30;53.10
68350;DHT22;55268;-34.538;-58.598;2022-08-19T09:37:52;4.20;53.10
68350;DHT22;55268;-34.538;-58.598;2022-08-19T09:40:19;4.10;53.00
68350;DHT22;55268;-34.538;-58.598;2022-08-19T09:42:49;4.10;53.10
68350;DHT22;55268;-34.538;-58.598;2022-08-19T09:45:20;4.00;53.50
68350;DHT22;55268;-34.538;-58.598;2022-08-19T09:47:49;4.00;53.30
68350;DHT22;55268;-34.538;-58.598;2022-08-19T09:50:17;4.00;53.10
68350;DHT22;55268;-34.538;-58.598;2022-08-19T09:52:55;4.00;52.90
68350;DHT22;55268;-34.538;-58.598;2022-08-19T09:55:30;4.00;52.70
68350;DHT22;55268;-34.538;-58.598;2022-08-19T09:57:58;4.00;52.50
68350;DHT22;55268;-34.538;-58.598;2022-08-19T10:00:25;4.00;52.60
68350;DHT22;55268;-34.538;-58.598;2022-08-19T10:02:55;3.90;52.80
68350;DHT22;55268;-34.538;-58.598;2022-08-19T10:05:25;4.00;52.90
68350;DHT22;55268;-34.538;-58.598;2022-08-19T10:08:11;4.00;53.10
68350;DHT22;55268;-34.538;-58.598;2022-08-19T10:10:38;4.10;52.40
68350;DHT22;55268;-34.538;-58.598;2022-08-19T10:13:07;4.10;52.50
68350;DHT22;55268;-34.538;-58.598;2022-08-19T10:15:37;4.10;52.40
68350;DHT22;55268;-34.538;-58.598;2022-08-19T10:18:06;4.10;52.00
68350;DHT22;55268;-34.538;-58.598;2022-08-19T10:20:33;4.10;51.80
68350;DHT22;55268;-34.538;-58.598;2022-08-19T10:23:04;4.10;52.00
68350;DHT22;55268;-34.538;-58.598;2022-08-19T10:25:33;4.10;52.50
68350;DHT22;55268;-34.538;-58.598;2022-08-19T10:28:00;4.10;51.90
68350;DHT22;55268;-34.538;-58.598;2022-08-19T10:30:27;4.10;51.70
68350;DHT22;55268;-34.538;-58.598;2022-08-19T10:32:56;4.00;52.10
68350;DHT22;55268;-34.538;-58.598;2022-08-19T10:35:25;4.00;52.20
68350;DHT22;55268;-34.538;-58.598;2022-08-19T10:37:56;3.90;52.30
68350;DHT22;55268;-34.538;-58.598;2022-08-19T10:40:27;3.90;52.10
68350;DHT22;55268;-34.538;-58.598;2022-08-19T10:42:56;4.00;52.40
68350;DHT22;55268;-34.538;-58.598;2022-08-19T10:45:25;4.00;52.30
68350;DHT22;55268;-34.538;-58.598;2022-08-19T10:47:53;3.90;52.40
68350;DHT22;55268;-34.538;-58.598;2022-08-19T10:50:20;3.90;52.20
68350;DHT22;55268;-34.538;-58.598;2022-08-19T10:53:09;3.90;52.30
68350;DHT22;55268;-34.538;-58.598;2022-08-19T10:55:38;4.00;52.30
68350;DHT22;55268;-34.538;-58.598;2022-08-19T10:58:24;4.00;52.00
68350;DHT22;55268;-34.538;-58.598;2022-08-19T11:00:54;4.10;51.80
68350;DHT22;55268;-34.538;-58.598;2022-08-19T11:03:25;4.20;51.40
68350;DHT22;55268;-34.538;-58.598;2022-08-19T11:06:00;4.20;51.50
68350;DHT22;55268;-34.538;-58.598;2022-08-19T11:08:28;4.30;51.80
68350;DHT22;55268;-34.538;-58.598;2022-08-19T11:10:59;4.40;51.30
68350;DHT22;55268;-34.538;-58.598;2022-08-19T11:13:33;4.40;51.00
68350;DHT22;55268;-34.538;-58.598;2022-08-19T11:16:08;4.40;51.00
68350;DHT22;55268;-34.538;-58.598;2022-08-19T11:18:42;4.50;51.00
68350;DHT22;55268;-34.538;-58.598;2022-08-19T11:23:56;4.70;51.00
68350;DHT22;55268;-34.538;-58.598;2022-08-19T11:26:24;4.80;50.70
68350;DHT22;55268;-34.538;-58.598;2022-08-19T11:28:51;5.00;50.10
68350;DHT22;55268;-34.538;-58.598;2022-08-19T11:31:24;5.10;49.70
68350;DHT22;55268;-34.538;-58.598;2022-08-19T11:33:55;5.20;49.10
68350;DHT22;55268;-34.538;-58.598;2022-08-19T11:36:23;5.30;48.90
68350;DHT22;55268;-34.538;-58.598;2022-08-19T11:38:50;5.40;48.90
68350;DHT22;55268;-34.538;-58.598;2022-08-19T11:41:20;5.50;49.10
68350;DHT22;55268;-34.538;-58.598;2022-08-19T11:43:51;5.60;48.40
68350;DHT22;55268;-34.538;-58.598;2022-08-19T11:46:21;5.70;48.20
68350;DHT22;55268;-34.538;-58.598;2022-08-19T11:48:48;5.70;47.90
68350;DHT22;55268;-34.538;-58.598;2022-08-19T11:51:21;5.80;47.10
68350;DHT22;55268;-34.538;-58.598;2022-08-19T11:53:50;5.90;46.70
68350;DHT22;55268;-34.538;-58.598;2022-08-19T11:56:19;5.90;46.20
68350;DHT22;55268;-34.538;-58.598;2022-08-19T11:58:47;5.90;46.60
68350;DHT22;55268;-34.538;-58.598;2022-08-19T12:01:16;6.00;45.80
68350;DHT22;55268;-34.538;-58.598;2022-08-19T12:03:49;6.00;46.50
68350;DHT22;55268;-34.538;-58.598;2022-08-19T12:06:18;6.10;45.60
68350;DHT22;55268;-34.538;-58.598;2022-08-19T12:08:46;6.20;45.70
68350;DHT22;55268;-34.538;-58.598;2022-08-19T12:11:13;6.20;45.80
68350;DHT22;55268;-34.538;-58.598;2022-08-19T12:13:43;6.30;44.90
68350;DHT22;55268;-34.538;-58.598;2022-08-19T12:16:18;6.40;44.80
68350;DHT22;55268;-34.538;-58.598;2022-08-19T12:18:46;6.50;45.00
68350;DHT22;55268;-34.538;-58.598;2022-08-19T12:21:14;6.50;44.80
68350;DHT22;55268;-34.538;-58.598;2022-08-19T12:23:44;6.60;44.90
68350;DHT22;55268;-34.538;-58.598;2022-08-19T12:26:13;6.70;43.90
68350;DHT22;55268;-34.538;-58.598;2022-08-19T12:28:40;6.80;44.10
68350;DHT22;55268;-34.538;-58.598;2022-08-19T12:31:08;6.80;43.60
68350;DHT22;55268;-34.538;-58.598;2022-08-19T12:33:40;6.90;43.10
68350;DHT22;55268;-34.538;-58.598;2022-08-19T12:36:12;7.00;42.90
68350;DHT22;55268;-34.538;-58.598;2022-08-19T12:38:40;7.10;42.60
68350;DHT22;55268;-34.538;-58.598;2022-08-19T12:41:10;7.10;42.90
68350;DHT22;55268;-34.538;-58.598;2022-08-19T12:43:40;7.20;43.10
68350;DHT22;55268;-34.538;-58.598;2022-08-19T12:46:10;7.30;43.40
68350;DHT22;55268;-34.538;-58.598;2022-08-19T12:48:47;7.40;41.90
68350;DHT22;55268;-34.538;-58.598;2022-08-19T12:51:16;7.50;40.80
68350;DHT22;55268;-34.538;-58.598;2022-08-19T12:53:48;7.60;40.40
68350;DHT22;55268;-34.538;-58.598;2022-08-19T12:56:16;7.70;40.70
68350;DHT22;55268;-34.538;-58.598;2022-08-19T12:58:45;7.70;41.60
68350;DHT22;55268;-34.538;-58.598;2022-08-19T13:01:16;7.90;41.40
68350;DHT22;55268;-34.538;-58.598;2022-08-19T13:03:48;7.90;41.00
68350;DHT22;55268;-34.538;-58.598;2022-08-19T13:06:15;8.00;40.90
68350;DHT22;55268;-34.538;-58.598;2022-08-19T13:08:42;8.10;41.30
68350;DHT22;55268;-34.538;-58.598;2022-08-19T13:11:11;8.20;41.20
68350;DHT22;55268;-34.538;-58.598;2022-08-19T13:13:41;8.30;40.50
68350;DHT22;55268;-34.538;-58.598;2022-08-19T13:16:11;8.30;40.00
68350;DHT22;55268;-34.538;-58.598;2022-08-19T13:18:40;8.40;39.90
68350;DHT22;55268;-34.538;-58.598;2022-08-19T13:21:09;8.50;39.80
68350;DHT22;55268;-34.538;-58.598;2022-08-19T13:23:41;8.50;40.30
68350;DHT22;55268;-34.538;-58.598;2022-08-19T13:26:12;8.60;40.10
68350;DHT22;55268;-34.538;-58.598;2022-08-19T13:28:40;8.70;39.90
68350;DHT22;55268;-34.538;-58.598;2022-08-19T13:31:31;8.80;39.40
68350;DHT22;55268;-34.538;-58.598;2022-08-19T13:34:25;8.80;38.50
68350;DHT22;55268;-34.538;-58.598;2022-08-19T13:36:53;8.90;39.60
68350;DHT22;55268;-34.538;-58.598;2022-08-19T13:39:20;9.00;38.70
68350;DHT22;55268;-34.538;-58.598;2022-08-19T13:41:51;9.10;38.20
68350;DHT22;55268;-34.538;-58.598;2022-08-19T13:44:21;9.20;38.00
68350;DHT22;55268;-34.538;-58.598;2022-08-19T13:46:48;9.20;38.70
68350;DHT22;55268;-34.538;-58.598;2022-08-19T13:49:18;9.30;38.20
68350;DHT22;55268;-34.538;-58.598;2022-08-19T13:51:48;9.40;37.90
68350;DHT22;55268;-34.538;-58.598;2022-08-19T13:54:17;9.50;38.40
68350;DHT22;55268;-34.538;-58.598;2022-08-19T13:56:45;9.60;37.70
68350;DHT22;55268;-34.538;-58.598;2022-08-19T13:59:12;9.70;36.80
68350;DHT22;55268;-34.538;-58.598;2022-08-19T14:01:41;9.80;37.10
68350;DHT22;55268;-34.538;-58.598;2022-08-19T14:04:11;9.90;36.30
68350;DHT22;55268;-34.538;-58.598;2022-08-19T14:06:38;10.00;36.60
68350;DHT22;55268;-34.538;-58.598;2022-08-19T14:09:05;10.10;36.70
68350;DHT22;55268;-34.538;-58.598;2022-08-19T14:11:34;10.20;36.40
68350;DHT22;55268;-34.538;-58.598;2022-08-19T14:14:03;10.30;36.40
68350;DHT22;55268;-34.538;-58.598;2022-08-19T14:16:30;10.30;36.90
68350;DHT22;55268;-34.538;-58.598;2022-08-19T14:18:57;10.50;36.60
68350;DHT22;55268;-34.538;-58.598;2022-08-19T14:21:26;10.60;36.50
68350;DHT22;55268;-34.538;-58.598;2022-08-19T14:23:56;10.70;37.10
68350;DHT22;55268;-34.538;-58.598;2022-08-19T14:26:23;10.80;36.30
68350;DHT22;55268;-34.538;-58.598;2022-08-19T14:28:50;10.80;36.30
68350;DHT22;55268;-34.538;-58.598;2022-08-19T14:31:20;10.90;36.50
68350;DHT22;55268;-34.538;-58.598;2022-08-19T14:33:50;11.00;35.20
68350;DHT22;55268;-34.538;-58.598;2022-08-19T14:36:17;11.10;34.60
68350;DHT22;55268;-34.538;-58.598;2022-08-19T14:38:46;11.20;35.00
68350;DHT22;55268;-34.538;-58.598;2022-08-19T14:41:18;11.20;33.80
68350;DHT22;55268;-34.538;-58.598;2022-08-19T14:43:51;11.20;34.90
68350;DHT22;55268;-34.538;-58.598;2022-08-19T14:46:21;11.40;34.60
68350;DHT22;55268;-34.538;-58.598;2022-08-19T14:48:49;11.50;34.30
68350;DHT22;55268;-34.538;-58.598;2022-08-19T14:51:16;11.60;34.40
68350;DHT22;55268;-34.538;-58.598;2022-08-19T14:53:48;11.60;34.90
68350;DHT22;55268;-34.538;-58.598;2022-08-19T14:56:17;11.70;34.40
68350;DHT22;55268;-34.538;-58.598;2022-08-19T14:58:45;11.70;34.70
68350;DHT22;55268;-34.538;-58.598;2022-08-19T15:01:13;11.80;34.80
68350;DHT22;55268;-34.538;-58.598;2022-08-19T15:03:42;11.90;35.50
68350;DHT22;55268;-34.538;-58.598;2022-08-19T15:06:11;12.10;34.60
68350;DHT22;55268;-34.538;-58.598;2022-08-19T15:08:41;12.10;33.90
68350;DHT22;55268;-34.538;-58.598;2022-08-19T15:11:13;12.10;34.20
68350;DHT22;55268;-34.538;-58.598;2022-08-19T15:13:44;12.10;34.30
68350;DHT22;55268;-34.538;-58.598;2022-08-19T15:16:14;12.20;34.40
68350;DHT22;55268;-34.538;-58.598;2022-08-19T15:18:43;12.20;34.50
68350;DHT22;55268;-34.538;-58.598;2022-08-19T15:21:13;12.30;34.20
68350;DHT22;55268;-34.538;-58.598;2022-08-19T15:23:43;12.40;34.40
68350;DHT22;55268;-34.538;-58.598;2022-08-19T15:26:13;12.50;34.40
68350;DHT22;55268;-34.538;-58.598;2022-08-19T15:28:41;12.60;34.00